Time;durP1;ratioP1;P1;durP2;ratioP2;P2;SDS_P1;SDS_P2;PMS_P1;PMS_P2;Temp;Humidity;BMP_temperature;BMP_pressure;BME280_temperature;BME280_humidity;BME280_pressure;Samples;Min_cycle;Max_cycle;Signal;HPM_P1;HPM_P2
2022/07/04 00:00:35;;;;;;;5.38;4.10;;;10.50;99.90;;;;;;4975302;28;20077;-82
2022/07/04 00:03:00;;;;;;;7.22;4.32;;;10.40;99.90;;;;;;4976503;28;20069;-82
2022/07/04 00:05:26;;;;;;;6.00;4.32;;;10.50;99.90;;;;;;4968950;28;20078;-82
2022/07/04 00:07:51;;;;;;;9.10;4.57;;;10.50;99.90;;;;;;4957039;28;20019;-81
2022/07/04 00:10:19;;;;;;;5.47;4.55;;;10.70;99.90;;;;;;4965305;28;20390;-82
2022/07/04 00:12:45;;;;;;;7.18;4.68;;;10.70;99.90;;;;;;4976504;28;20023;-82
2022/07/04 00:15:11;;;;;;;7.53;4.47;;;10.40;99.90;;;;;;4976478;28;20478;-81
2022/07/04 00:17:37;;;;;;;7.20;4.60;;;10.50;99.90;;;;;;4974874;28;20081;-81
2022/07/04 00:20:05;;;;;;;7.70;4.70;;;10.40;99.90;;;;;;4956490;28;20032;-82
2022/07/04 00:22:31;;;;;;;5.28;4.72;;;10.40;99.90;;;;;;4971449;28;20015;-82
2022/07/04 00:24:56;;;;;;;7.60;5.07;;;10.50;99.90;;;;;;4965083;28;20383;-82
2022/07/04 00:27:22;;;;;;;7.28;4.80;;;10.50;99.90;;;;;;4972719;28;20086;-82
2022/07/04 00:29:48;;;;;;;7.53;4.85;;;10.30;99.90;;;;;;4976194;28;20045;-81
2022/07/04 00:32:13;;;;;;;4.97;4.20;;;10.40;99.90;;;;;;4988858;23;20041;-77
2022/07/04 00:34:39;;;;;;;9.27;5.05;;;10.30;99.90;;;;;;4972782;28;20447;-77
2022/07/04 00:37:04;;;;;;;8.20;4.93;;;10.20;99.90;;;;;;4974392;28;20015;-77
2022/07/04 00:39:30;;;;;;;5.35;4.20;;;10.20;99.90;;;;;;4974515;28;20058;-77
2022/07/04 00:41:56;;;;;;;10.07;4.95;;;10.20;99.90;;;;;;4974305;28;20031;-77
2022/07/04 00:44:22;;;;;;;8.50;5.10;;;10.30;99.90;;;;;;4974226;28;20107;-77
2022/07/04 00:46:48;;;;;;;6.95;4.70;;;10.50;99.90;;;;;;4974385;28;20058;-77
2022/07/04 00:49:16;;;;;;;8.02;4.95;;;10.50;99.90;;;;;;4974323;28;20023;-77
2022/07/04 00:51:43;;;;;;;6.07;3.95;;;10.40;99.90;;;;;;4973816;28;20118;-77
2022/07/04 00:54:11;;;;;;;11.45;4.93;;;10.40;99.90;;;;;;4974107;28;20029;-77
2022/07/04 00:56:40;;;;;;;7.68;4.97;;;10.30;99.90;;;;;;4954702;28;20027;-77
2022/07/04 00:59:06;;;;;;;8.07;4.78;;;10.40;99.90;;;;;;4978030;28;20023;-77
2022/07/04 01:01:32;;;;;;;5.03;4.10;;;10.50;99.90;;;;;;4974140;28;20023;-77
2022/07/04 01:04:01;;;;;;;7.55;4.40;;;10.30;99.90;;;;;;4973902;28;20679;-77
2022/07/04 01:06:26;;;;;;;8.55;4.72;;;10.50;99.90;;;;;;4974012;28;20080;-77
2022/07/04 01:08:52;;;;;;;6.90;4.90;;;10.30;99.90;;;;;;4973737;28;20106;-77
2022/07/04 01:11:18;;;;;;;5.07;3.92;;;10.30;99.90;;;;;;4973924;28;20039;-77
2022/07/04 01:13:44;;;;;;;7.32;4.30;;;10.30;99.90;;;;;;4973920;28;20023;-77
2022/07/04 01:16:10;;;;;;;7.07;4.63;;;10.20;99.90;;;;;;4973776;28;20391;-77
2022/07/04 01:18:37;;;;;;;10.18;4.90;;;10.30;99.90;;;;;;4973779;28;20080;-77
2022/07/04 01:21:03;;;;;;;7.20;4.57;;;10.20;99.90;;;;;;4973708;28;20030;-77
2022/07/04 01:23:29;;;;;;;8.07;4.00;;;10.30;99.90;;;;;;4968123;28;20656;-77
2022/07/04 01:25:56;;;;;;;6.63;3.97;;;10.10;99.90;;;;;;4954330;28;20106;-77
2022/07/04 01:28:22;;;;;;;6.32;4.45;;;10.10;99.90;;;;;;4973443;28;20503;-77
2022/07/04 01:30:48;;;;;;;6.70;3.80;;;10.60;99.90;;;;;;4973660;28;20071;-77
2022/07/04 01:33:14;;;;;;;8.85;4.35;;;10.30;99.90;;;;;;4973178;28;20498;-77
2022/07/04 01:35:40;;;;;;;6.38;3.92;;;10.20;99.90;;;;;;4973845;28;20019;-77
2022/07/04 01:38:06;;;;;;;7.05;4.25;;;10.30;99.90;;;;;;4973539;28;20019;-77
2022/07/04 01:40:32;;;;;;;7.80;4.25;;;10.20;99.90;;;;;;4973402;28;20058;-77
2022/07/04 01:43:00;;;;;;;4.75;3.50;;;10.40;99.90;;;;;;4973522;28;20038;-77
2022/07/04 01:45:26;;;;;;;5.85;3.92;;;10.30;99.90;;;;;;4973767;28;20231;-77
2022/07/04 01:47:52;;;;;;;6.82;4.07;;;10.10;99.90;;;;;;4973488;28;20482;-77
2022/07/04 01:50:17;;;;;;;4.75;3.85;;;10.10;99.90;;;;;;4972065;28;20504;-77
2022/07/04 01:52:43;;;;;;;7.22;4.43;;;10.30;99.90;;;;;;4973503;28;20541;-77
2022/07/04 01:55:10;;;;;;;7.32;4.32;;;10.10;99.90;;;;;;4973305;28;20019;-77
2022/07/04 01:57:36;;;;;;;6.63;3.95;;;10.10;99.90;;;;;;4973250;28;20703;-77
2022/07/04 02:02:51;;;;;;;6.53;4.13;;;10.10;99.90;;;;;;4962364;28;20041;-77
2022/07/04 02:05:17;;;;;;;6.28;3.60;;;10.20;99.90;;;;;;4973257;28;20253;-77
2022/07/04 02:07:43;;;;;;;8.45;4.45;;;10.00;99.90;;;;;;4973393;28;20029;-77
2022/07/04 02:10:10;;;;;;;6.60;4.40;;;10.30;99.90;;;;;;4975062;28;20022;-77
2022/07/04 02:15:20;;;;;;;7.18;4.22;;;10.20;99.90;;;;;;4977415;28;20053;-77
2022/07/04 02:17:45;;;;;;;7.88;4.38;;;10.10;99.90;;;;;;4976936;28;20462;-77
2022/07/04 02:20:11;;;;;;;8.25;4.25;;;10.10;99.90;;;;;;4976938;28;20018;-77
2022/07/04 02:22:37;;;;;;;9.60;5.10;;;10.20;99.90;;;;;;4976919;28;20105;-77
2022/07/04 02:25:03;;;;;;;8.05;4.57;;;10.50;99.90;;;;;;4976753;28;20034;-77
2022/07/04 02:27:28;;;;;;;7.72;5.00;;;10.10;99.90;;;;;;4976850;28;20043;-76
2022/07/04 02:29:54;;;;;;;9.38;4.80;;;10.20;99.90;;;;;;4976275;28;20023;-77
2022/07/04 02:32:20;;;;;;;10.35;5.35;;;10.30;99.90;;;;;;4975949;28;20034;-77
2022/07/04 02:34:45;;;;;;;5.88;3.88;;;10.50;99.90;;;;;;4976103;28;20078;-77
2022/07/04 02:37:11;;;;;;;6.18;4.90;;;10.30;99.90;;;;;;4976925;28;20110;-77
2022/07/04 02:39:36;;;;;;;7.90;4.90;;;10.20;99.90;;;;;;4976711;28;20050;-77
2022/07/04 02:42:02;;;;;;;9.25;5.13;;;10.40;99.90;;;;;;4976466;28;20074;-77
2022/07/04 02:44:28;;;;;;;6.82;4.82;;;10.40;99.90;;;;;;4976544;28;20026;-77
2022/07/04 02:46:53;;;;;;;6.88;4.85;;;10.20;99.90;;;;;;4975250;28;20019;-77
2022/07/04 02:49:19;;;;;;;6.63;4.93;;;10.60;99.90;;;;;;4976517;28;20038;-77
2022/07/04 02:51:45;;;;;;;7.30;5.00;;;10.70;99.90;;;;;;4976285;28;20063;-77
2022/07/04 02:54:11;;;;;;;9.57;5.88;;;10.70;99.90;;;;;;4976415;28;20110;-77
2022/07/04 02:56:36;;;;;;;8.15;5.13;;;10.80;99.90;;;;;;4976210;28;20019;-77
2022/07/04 02:59:02;;;;;;;12.63;5.65;;;10.90;99.90;;;;;;4976321;28;20023;-77
2022/07/04 03:01:28;;;;;;;11.35;5.65;;;10.90;99.90;;;;;;4967798;28;20032;-77
2022/07/04 03:03:53;;;;;;;8.20;5.60;;;11.00;99.90;;;;;;4956921;28;20038;-77
2022/07/04 03:06:19;;;;;;;7.07;5.20;;;11.30;99.90;;;;;;4956776;28;20023;-77
2022/07/04 03:08:45;;;;;;;8.65;5.10;;;11.40;99.90;;;;;;4956832;28;20028;-77
2022/07/04 03:11:11;;;;;;;10.52;5.40;;;11.30;99.90;;;;;;4956718;28;20027;-76
2022/07/04 03:13:38;;;;;;;15.45;5.75;;;11.20;99.90;;;;;;4956682;28;20066;-77
2022/07/04 03:16:04;;;;;;;7.40;4.95;;;11.30;99.90;;;;;;4956578;29;20106;-77
2022/07/04 03:18:30;;;;;;;6.95;4.28;;;11.00;99.90;;;;;;4956739;28;20050;-77
2022/07/04 03:20:55;;;;;;;6.50;4.20;;;10.80;99.90;;;;;;4959334;28;20027;-77
2022/07/04 03:23:21;;;;;;;9.10;4.50;;;10.80;99.90;;;;;;4975977;28;20023;-77
2022/07/04 03:25:46;;;;;;;6.13;3.90;;;10.80;99.90;;;;;;4975736;28;20559;-77
2022/07/04 03:28:12;;;;;;;8.50;4.22;;;10.70;99.90;;;;;;4975839;28;20525;-77
2022/07/04 03:30:38;;;;;;;7.50;4.38;;;10.80;99.90;;;;;;4974474;28;20023;-77
2022/07/04 03:33:04;;;;;;;8.02;4.10;;;10.80;99.90;;;;;;4964619;28;20430;-77
2022/07/04 03:35:30;;;;;;;6.50;3.78;;;10.70;99.90;;;;;;4973746;28;20034;-77
2022/07/04 03:37:56;;;;;;;5.65;3.50;;;10.80;99.90;;;;;;4975712;28;20019;-77
2022/07/04 03:40:21;;;;;;;7.88;3.85;;;10.90;99.90;;;;;;4975470;28;20552;-77
2022/07/04 03:42:47;;;;;;;5.75;4.10;;;10.80;99.90;;;;;;4970187;28;20114;-77
2022/07/04 03:45:13;;;;;;;7.63;4.45;;;11.00;99.90;;;;;;4956258;28;20499;-77
2022/07/04 03:47:39;;;;;;;8.68;4.50;;;11.20;99.90;;;;;;4956149;28;20095;-77
2022/07/04 03:50:05;;;;;;;8.02;4.60;;;11.50;99.90;;;;;;4967029;28;20077;-77
2022/07/04 03:52:30;;;;;;;7.80;4.43;;;11.50;99.90;;;;;;4975357;28;20030;-77
2022/07/04 03:54:56;;;;;;;6.72;3.92;;;11.70;99.90;;;;;;4975415;28;20019;-77
2022/07/04 03:57:22;;;;;;;6.70;4.50;;;11.70;99.90;;;;;;4975355;28;20023;-77
2022/07/04 03:59:48;;;;;;;8.35;4.65;;;11.80;99.90;;;;;;4975134;28;20101;-77
2022/07/04 04:02:13;;;;;;;6.10;4.55;;;11.90;99.90;;;;;;4975180;28;20065;-77
2022/07/04 04:07:23;;;;;;;7.38;4.35;;;12.10;99.90;;;;;;4969374;28;20086;-77
2022/07/04 04:09:48;;;;;;;8.32;4.50;;;12.50;99.90;;;;;;4968101;28;20023;-77
2022/07/04 04:12:14;;;;;;;5.95;4.75;;;13.70;99.90;;;;;;4975111;28;20030;-77
2022/07/04 04:14:40;;;;;;;7.47;4.22;;;15.20;99.90;;;;;;4962838;28;20029;-78
2022/07/04 04:17:05;;;;;;;5.07;3.50;;;16.30;99.90;;;;;;4961487;28;20031;-77
2022/07/04 04:19:31;;;;;;;3.38;2.85;;;16.90;1.00;;;;;;4974763;28;20102;-76
2022/07/04 04:21:56;;;;;;;3.65;2.70;;;16.80;1.00;;;;;;4976297;28;20156;-77
2022/07/04 04:24:22;;;;;;;5.65;3.15;;;16.70;1.00;;;;;;4974860;28;20113;-77
2022/07/04 04:26:49;;;;;;;3.67;2.47;;;16.80;1.00;;;;;;4974720;28;20471;-77
2022/07/04 04:29:14;;;;;;;4.22;2.67;;;18.10;1.00;;;;;;4974767;28;20035;-77
2022/07/04 04:31:40;;;;;;;3.65;2.42;;;18.30;1.00;;;;;;4974104;28;20080;-77
2022/07/04 04:34:06;;;;;;;2.45;1.92;;;19.10;99.90;;;;;;4959985;28;20063;-77
2022/07/04 04:36:32;;;;;;;4.20;2.00;;;18.30;99.90;;;;;;4955203;28;20391;-77
2022/07/04 04:38:57;;;;;;;3.10;2.15;;;20.00;99.90;;;;;;4964188;28;20019;-77
2022/07/04 04:41:23;;;;;;;3.33;2.10;;;21.10;99.90;;;;;;4974285;28;20530;-77
2022/07/04 04:43:49;;;;;;;2.47;1.90;;;22.30;99.90;;;;;;4974321;28;20034;-77
2022/07/04 04:46:14;;;;;;;5.95;2.28;;;23.10;99.90;;;;;;4974324;28;20015;-77
2022/07/04 04:48:40;;;;;;;3.92;1.63;;;23.80;99.90;;;;;;4974288;28;20030;-78
2022/07/04 04:51:05;;;;;;;6.50;2.13;;;24.10;99.90;;;;;;4974185;28;20031;-77
2022/07/04 04:53:31;;;;;;;3.55;1.95;;;25.20;99.90;;;;;;4974312;28;20379;-77
2022/07/04 04:55:57;;;;;;;2.83;1.70;;;26.10;99.90;;;;;;4974206;28;20022;-77
2022/07/04 04:58:23;;;;;;;5.60;2.78;;;26.50;99.90;;;;;;4959198;28;20436;-77
2022/07/04 05:00:49;;;;;;;2.63;2.10;;;27.30;99.90;;;;;;4954812;28;20031;-78
2022/07/04 05:03:16;;;;;;;2.20;1.63;;;28.20;99.90;;;;;;4954944;28;20023;-78
2022/07/04 05:05:42;;;;;;;2.25;1.50;;;29.20;99.90;;;;;;4954806;29;20384;-78
2022/07/04 05:08:08;;;;;;;2.75;1.85;;;30.10;99.90;;;;;;4972266;28;20471;-78
2022/07/04 05:10:33;;;;;;;3.97;1.70;;;29.90;99.90;;;;;;4972850;28;20027;-78
2022/07/04 05:12:59;;;;;;;2.15;1.58;;;28.30;99.90;;;;;;4973596;28;20029;-78
2022/07/04 05:15:24;;;;;;;4.80;1.67;;;28.30;99.90;;;;;;4973707;28;20113;-77
2022/07/04 05:17:50;;;;;;;3.10;1.92;;;26.20;99.90;;;;;;4973580;28;20081;-78
2022/07/04 05:20:16;;;;;;;3.45;1.70;;;28.50;99.90;;;;;;4973750;28;20069;-78
2022/07/04 05:22:42;;;;;;;3.13;1.45;;;29.20;99.90;;;;;;4973714;28;20034;-78
2022/07/04 05:25:08;;;;;;;6.18;1.80;;;27.70;99.90;;;;;;4973806;28;20027;-78
2022/07/04 05:27:34;;;;;;;1.92;1.30;;;26.20;99.90;;;;;;4973924;28;20473;-77
2022/07/04 05:29:59;;;;;;;4.72;1.60;;;26.10;99.90;;;;;;4973577;28;20550;-77
2022/07/04 05:32:26;;;;;;;2.45;1.70;;;27.80;99.90;;;;;;4973117;28;20030;-78
2022/07/04 05:34:51;;;;;;;2.60;1.60;;;28.20;99.90;;;;;;4973434;28;20047;-77
2022/07/04 05:37:17;;;;;;;2.75;1.30;;;30.70;99.90;;;;;;4973567;28;20070;-78
2022/07/04 05:39:43;;;;;;;5.60;1.33;;;28.40;99.90;;;;;;4973600;28;20421;-78
2022/07/04 05:42:09;;;;;;;3.00;1.45;;;28.20;99.90;;;;;;4973418;28;20035;-78
2022/07/04 05:44:35;;;;;;;3.38;1.27;;;30.60;99.90;;;;;;4972604;28;20059;-77
2022/07/04 05:47:00;;;;;;;2.50;1.30;;;33.30;99.90;;;;;;4972261;28;20110;-78
2022/07/04 05:49:26;;;;;;;2.22;1.10;;;35.20;99.90;;;;;;4954235;28;20376;-78
2022/07/04 05:51:51;;;;;;;2.28;1.10;;;32.10;99.90;;;;;;4955561;28;20071;-78
2022/07/04 05:54:17;;;;;;;3.63;1.15;;;30.90;99.90;;;;;;4973250;28;20031;-78
2022/07/04 05:56:43;;;;;;;2.50;1.10;;;31.00;99.90;;;;;;4973530;28;20369;-77
2022/07/04 05:59:09;;;;;;;2.90;1.05;;;30.10;99.90;;;;;;4973241;28;20031;-78
2022/07/04 06:01:36;;;;;;;1.27;0.95;;;29.20;99.90;;;;;;4973294;28;20046;-77
2022/07/04 06:04:05;;;;;;;2.47;0.90;;;28.20;99.90;;;;;;4973241;28;20022;-78
2022/07/04 06:06:31;;;;;;;3.75;1.10;;;27.60;99.90;;;;;;4973287;28;20118;-78
2022/07/04 06:08:57;;;;;;;1.90;0.98;;;26.90;99.90;;;;;;4973298;28;20288;-77
2022/07/04 06:11:23;;;;;;;2.38;1.00;;;25.40;99.90;;;;;;4955009;28;20042;-78
2022/07/04 06:13:49;;;;;;;2.95;1.10;;;26.10;99.90;;;;;;4965072;28;20023;-77
2022/07/04 06:16:15;;;;;;;2.33;1.15;;;26.50;99.90;;;;;;4973185;28;20026;-77
2022/07/04 06:18:41;;;;;;;2.42;1.00;;;27.00;99.90;;;;;;4973182;28;20019;-77
2022/07/04 06:21:07;;;;;;;1.65;0.90;;;30.30;99.90;;;;;;4973021;28;20055;-78
2022/07/04 06:23:33;;;;;;;3.97;1.00;;;33.30;99.90;;;;;;4973028;28;20101;-78
2022/07/04 06:25:58;;;;;;;4.13;0.90;;;33.90;99.90;;;;;;4973025;28;20015;-77
2022/07/04 06:28:24;;;;;;;2.55;0.95;;;33.40;99.90;;;;;;4973145;28;20102;-77
2022/07/04 06:30:50;;;;;;;1.10;0.80;;;32.20;99.90;;;;;;4970959;28;20459;-76
2022/07/04 06:33:15;;;;;;;1.45;0.90;;;30.40;99.90;;;;;;4971627;28;20234;-77
2022/07/04 06:35:56;;;;;;;1.58;0.73;;;30.80;99.90;;;;;;4972397;28;20106;-77
2022/07/04 06:38:27;;;;;;;1.08;0.73;;;34.60;99.90;;;;;;4972233;28;20085;-77
2022/07/04 06:40:57;;;;;;;2.58;0.90;;;36.30;99.90;;;;;;4962831;28;20118;-77
2022/07/04 06:43:23;;;;;;;1.80;0.90;;;35.30;99.90;;;;;;4952911;28;20098;-77
2022/07/04 06:45:49;;;;;;;2.92;1.02;;;37.20;99.90;;;;;;4952748;28;20024;-77
2022/07/04 06:48:15;;;;;;;1.55;1.00;;;39.50;99.90;;;;;;4952897;28;20028;-77
2022/07/04 06:50:41;;;;;;;1.88;0.77;;;39.40;99.90;;;;;;4970893;28;20027;-77
2022/07/04 06:53:08;;;;;;;2.35;0.80;;;37.60;99.90;;;;;;4972041;28;20098;-77
2022/07/04 06:55:34;;;;;;;1.55;0.70;;;37.90;99.90;;;;;;4974033;28;20019;-77
2022/07/04 06:58:00;;;;;;;3.00;0.90;;;35.00;99.90;;;;;;4975576;28;20033;-77
2022/07/04 07:00:26;;;;;;;2.80;0.80;;;34.90;99.90;;;;;;4975455;28;20023;-77
2022/07/04 07:02:52;;;;;;;2.72;1.13;;;35.80;99.90;;;;;;4975919;28;20489;-77
2022/07/04 07:05:17;;;;;;;1.90;0.85;;;37.30;99.90;;;;;;4975438;28;20031;-77
2022/07/04 07:07:43;;;;;;;1.27;0.57;;;38.20;99.90;;;;;;4975687;28;20030;-77
2022/07/04 07:10:09;;;;;;;2.20;0.80;;;37.50;99.90;;;;;;4975364;28;20026;-77
2022/07/04 07:12:35;;;;;;;2.53;0.63;;;36.30;99.90;;;;;;4975526;28;20029;-77
2022/07/04 07:15:01;;;;;;;2.08;0.68;;;36.00;99.90;;;;;;4966274;28;20030;-77
2022/07/04 07:17:27;;;;;;;2.58;0.80;;;36.90;99.90;;;;;;4964611;28;20027;-76
2022/07/04 07:19:53;;;;;;;3.03;0.80;;;35.80;99.90;;;;;;4955839;28;20019;-76
2022/07/04 07:22:19;;;;;;;1.27;0.68;;;39.20;99.90;;;;;;4968994;28;20117;-76
2022/07/04 07:24:45;;;;;;;2.65;0.80;;;40.60;99.90;;;;;;4971902;28;20142;-77
2022/07/04 07:27:11;;;;;;;1.08;0.70;;;39.30;99.90;;;;;;4975162;28;20486;-76
2022/07/04 07:29:37;;;;;;;2.50;0.70;;;40.10;99.90;;;;;;4964667;28;20031;-76
2022/07/04 07:32:03;;;;;;;1.77;0.80;;;39.40;99.90;;;;;;4975134;28;20110;-76
2022/07/04 07:34:29;;;;;;;1.70;0.75;;;38.20;99.90;;;;;;4974802;28;20058;-77
2022/07/04 07:36:54;;;;;;;1.75;0.73;;;36.90;99.90;;;;;;4975135;28;20079;-76
2022/07/04 07:39:20;;;;;;;1.83;0.73;;;35.30;99.90;;;;;;4975030;28;20023;-76
2022/07/04 07:41:46;;;;;;;1.88;0.75;;;35.20;99.90;;;;;;4975214;28;20026;-76
2022/07/04 07:44:12;;;;;;;2.25;0.77;;;34.80;99.90;;;;;;4974946;28;20459;-76
2022/07/04 07:46:38;;;;;;;2.42;0.70;;;32.90;99.90;;;;;;4974540;28;20041;-76
2022/07/04 07:49:04;;;;;;;1.45;0.90;;;33.90;99.90;;;;;;4974590;28;20027;-77
2022/07/04 07:51:30;;;;;;;2.05;0.80;;;33.70;99.90;;;;;;4974493;28;20023;-76
2022/07/04 07:53:55;;;;;;;3.97;1.10;;;35.70;99.90;;;;;;4974491;28;20411;-76
2022/07/04 07:56:22;;;;;;;3.88;1.00;;;36.60;99.90;;;;;;4974308;28;20019;-74
2022/07/04 07:58:48;;;;;;;2.58;0.75;;;36.00;99.90;;;;;;4974507;28;20102;-74
2022/07/04 08:01:14;;;;;;;2.88;1.00;;;37.10;99.90;;;;;;4974251;28;20107;-74
2022/07/04 08:06:24;;;;;;;3.33;1.30;;;40.40;99.90;;;;;;4973370;28;20094;-74
2022/07/04 08:08:50;;;;;;;3.47;1.08;;;42.30;99.90;;;;;;4974425;28;20035;-74
2022/07/04 08:11:16;;;;;;;1.92;0.93;;;41.20;99.90;;;;;;4974113;28;20034;-73
2022/07/04 08:13:41;;;;;;;1.73;0.75;;;39.20;99.90;;;;;;4974302;28;20430;-74
2022/07/04 08:16:07;;;;;;;1.17;0.82;;;41.00;99.90;;;;;;4974061;28;20374;-73
2022/07/04 08:18:33;;;;;;;3.60;1.20;;;41.40;99.90;;;;;;4974239;28;20018;-74
2022/07/04 08:20:59;;;;;;;2.17;1.10;;;38.60;99.90;;;;;;4973885;28;20066;-74
2022/07/04 08:23:25;;;;;;;2.15;0.88;;;36.90;99.90;;;;;;4974200;28;20130;-74
2022/07/04 08:25:51;;;;;;;0.95;0.75;;;36.60;99.90;;;;;;4974185;28;20501;-73
2022/07/04 08:28:16;;;;;;;2.00;1.10;;;40.60;99.90;;;;;;4974022;28;20027;-73
2022/07/04 08:30:42;;;;;;;3.25;0.90;;;39.20;99.90;;;;;;4973890;28;20027;-73
2022/07/04 08:33:07;;;;;;;2.03;0.80;;;34.40;99.90;;;;;;4973588;28;20074;-73
2022/07/04 08:35:33;;;;;;;2.28;0.90;;;33.00;99.90;;;;;;4973793;28;20026;-73
2022/07/04 08:37:59;;;;;;;1.52;0.80;;;31.60;99.90;;;;;;4973946;28;20077;-74
2022/07/04 08:40:26;;;;;;;2.25;0.90;;;33.60;99.90;;;;;;4973677;28;20485;-75
2022/07/04 08:42:54;;;;;;;4.33;1.20;;;31.10;99.90;;;;;;4974011;28;20141;-75
2022/07/04 08:45:28;;;;;;;2.83;1.00;;;34.80;99.90;;;;;;4973627;28;20394;-75
2022/07/04 08:48:08;;;;;;;2.33;1.00;;;31.90;99.90;;;;;;4973814;28;20030;-74
2022/07/04 08:50:43;;;;;;;4.10;1.10;;;38.30;99.90;;;;;;4974747;28;20027;-74
2022/07/04 08:53:13;;;;;;;2.20;1.00;;;35.20;99.90;;;;;;4964319;28;20168;-74
2022/07/04 08:58:30;;;;;;;1.92;0.90;;;36.70;99.90;;;;;;4970014;28;20510;-74
2022/07/04 09:01:01;;;;;;;1.67;0.73;;;38.10;99.90;;;;;;4973534;28;20513;-74
2022/07/04 09:03:29;;;;;;;2.05;0.80;;;35.20;99.90;;;;;;4973264;28;20075;-76
2022/07/04 09:05:56;;;;;;;1.58;1.02;;;38.10;99.90;;;;;;4970104;28;20467;-76
2022/07/04 09:08:22;;;;;;;2.92;0.90;;;38.70;99.90;;;;;;4965861;28;20438;-76
2022/07/04 09:10:49;;;;;;;3.00;1.10;;;34.80;99.90;;;;;;4967541;28;20134;-76
2022/07/04 09:13:17;;;;;;;1.92;0.88;;;34.90;99.90;;;;;;4973280;28;20031;-74
2022/07/04 09:15:45;;;;;;;2.83;1.00;;;35.70;99.90;;;;;;4976043;28;20054;-75
2022/07/04 09:18:19;;;;;;;2.08;1.00;;;31.90;99.90;;;;;;4973252;28;20035;-76
2022/07/04 09:20:45;;;;;;;1.90;0.90;;;36.10;99.90;;;;;;4971773;28;20077;-76
2022/07/04 09:23:27;;;;;;;2.10;0.80;;;39.90;99.90;;;;;;4970434;28;20039;-76
2022/07/04 09:26:14;;;;;;;1.25;0.70;;;39.10;99.90;;;;;;4954074;29;20360;-76
2022/07/04 09:28:41;;;;;;;1.33;0.90;;;35.90;99.90;;;;;;4967005;28;20026;-76
2022/07/04 09:31:21;;;;;;;2.33;0.68;;;38.40;99.90;;;;;;4968298;28;20055;-76
2022/07/04 09:34:03;;;;;;;0.70;0.70;;;41.20;99.90;;;;;;4968411;28;20146;-76
2022/07/04 09:36:35;;;;;;;3.83;0.90;;;40.10;99.90;;;;;;4954091;28;20082;-76
2022/07/04 09:39:12;;;;;;;1.67;0.90;;;39.30;99.90;;;;;;4963021;28;20041;-76
2022/07/04 09:42:02;;;;;;;1.45;0.77;;;41.60;99.90;;;;;;4973000;28;20463;-76
2022/07/04 09:44:34;;;;;;;2.47;0.90;;;42.60;99.90;;;;;;4961185;28;20089;-75
2022/07/04 09:47:18;;;;;;;2.10;0.90;;;42.70;99.90;;;;;;4972869;28;20027;-74
2022/07/04 09:50:01;;;;;;;1.98;0.85;;;41.50;99.90;;;;;;4972872;28;20038;-74
2022/07/04 09:52:29;;;;;;;2.58;0.75;;;41.50;99.90;;;;;;4973129;28;20406;-74
2022/07/04 09:55:05;;;;;;;2.47;0.85;;;43.10;99.90;;;;;;4967532;28;20025;-74
2022/07/04 09:57:32;;;;;;;3.10;0.70;;;42.10;99.90;;;;;;4960774;28;20027;-74
2022/07/04 10:00:18;;;;;;;0.90;0.70;;;41.20;99.90;;;;;;4957498;28;20115;-74
2022/07/04 10:02:44;;;;;;;2.53;0.73;;;42.70;99.90;;;;;;4953247;28;20443;-74
2022/07/04 10:05:10;;;;;;;2.88;1.05;;;43.30;99.90;;;;;;4953537;28;20788;-74
2022/07/04 10:07:43;;;;;;;3.05;1.10;;;42.90;99.90;;;;;;4954571;28;20475;-74
2022/07/04 10:10:26;;;;;;;1.25;0.63;;;40.60;99.90;;;;;;4973093;28;20019;-74
2022/07/04 10:12:53;;;;;;;0.98;0.68;;;40.90;99.90;;;;;;4956484;28;20677;-74
2022/07/04 10:15:19;;;;;;;2.70;0.68;;;39.10;99.90;;;;;;4971529;28;20031;-74
2022/07/04 10:17:45;;;;;;;2.03;0.88;;;36.20;99.90;;;;;;4972411;28;20030;-74
2022/07/04 10:20:12;;;;;;;6.47;1.00;;;37.70;99.90;;;;;;4966473;28;20035;-74
2022/07/04 10:22:38;;;;;;;1.77;0.80;;;34.90;99.90;;;;;;4972621;28;20383;-74
2022/07/04 10:25:05;;;;;;;2.20;0.70;;;34.50;99.90;;;;;;4973783;28;20015;-74
2022/07/04 10:27:30;;;;;;;2.42;0.90;;;37.30;99.90;;;;;;4974536;28;20058;-73
2022/07/04 10:30:01;;;;;;;2.08;1.00;;;39.00;99.90;;;;;;4973726;28;20537;-74
2022/07/04 10:32:28;;;;;;;1.88;0.77;;;36.20;99.90;;;;;;4976365;28;20022;-74
2022/07/04 10:34:53;;;;;;;2.22;0.80;;;39.80;99.90;;;;;;4976218;28;20114;-74
2022/07/04 10:37:20;;;;;;;2.85;0.80;;;40.80;99.90;;;;;;4976190;28;20062;-73
2022/07/04 10:39:46;;;;;;;2.45;0.80;;;39.90;99.90;;;;;;4976777;28;20030;-74
2022/07/04 10:42:23;;;;;;;1.48;0.73;;;40.10;99.90;;;;;;4977315;28;20027;-74
2022/07/04 10:44:53;;;;;;;0.88;0.70;;;41.00;99.90;;;;;;4976468;28;20027;-74
2022/07/04 10:47:27;;;;;;;2.00;1.00;;;40.90;99.90;;;;;;4976243;28;20054;-74
2022/07/04 10:49:53;;;;;;;1.48;0.85;;;41.10;99.90;;;;;;4967195;28;20054;-74
2022/07/04 10:52:18;;;;;;;3.95;0.93;;;41.70;99.90;;;;;;4976290;28;20035;-74
2022/07/04 10:54:45;;;;;;;2.92;0.88;;;39.80;99.90;;;;;;4975832;28;20078;-73
2022/07/04 10:57:12;;;;;;;1.20;0.80;;;38.60;99.90;;;;;;4975935;28;20063;-74
2022/07/04 10:59:39;;;;;;;3.35;0.95;;;38.80;99.90;;;;;;4975668;28;20022;-74
2022/07/04 11:02:35;;;;;;;2.63;0.90;;;37.40;99.90;;;;;;4975735;28;20023;-74
2022/07/04 11:05:11;;;;;;;3.17;0.82;;;38.00;99.90;;;;;;4975770;28;20034;-74
2022/07/04 11:07:36;;;;;;;2.17;0.70;;;38.70;99.90;;;;;;4962068;28;20559;-73
2022/07/04 11:10:11;;;;;;;1.02;0.70;;;37.60;99.90;;;;;;4956335;29;20161;-73
2022/07/04 11:12:55;;;;;;;1.42;0.55;;;38.20;99.90;;;;;;4956549;29;20026;-74
2022/07/04 11:15:29;;;;;;;1.33;0.47;;;36.00;99.90;;;;;;4966981;28;20471;-74
2022/07/04 11:18:03;;;;;;;5.60;0.70;;;35.80;99.90;;;;;;4967470;28;20038;-74
2022/07/04 11:20:31;;;;;;;1.35;0.50;;;35.20;99.90;;;;;;4966762;28;20027;-74
2022/07/04 11:23:15;;;;;;;2.88;0.55;;;34.20;99.90;;;;;;4976624;28;20026;-73
2022/07/04 11:25:48;;;;;;;2.35;0.82;;;33.30;99.90;;;;;;4976035;28;20081;-74
2022/07/04 11:28:22;;;;;;;2.53;0.60;;;30.70;99.90;;;;;;4980582;28;20018;-74
2022/07/04 11:30:56;;;;;;;1.17;0.43;;;29.80;99.90;;;;;;4977866;28;20042;-74
2022/07/04 11:33:34;;;;;;;1.95;0.70;;;30.00;99.90;;;;;;4979519;28;20050;-73
2022/07/04 11:36:03;;;;;;;2.08;0.90;;;30.10;99.90;;;;;;4980936;28;20490;-73
2022/07/04 11:38:45;;;;;;;;;;;29.10;99.90;;;;;;4974364;28;20070;-74
2022/07/04 11:46:39;;;;;;;1.48;0.63;;;28.50;99.90;;;;;;4966322;28;20575;-74
2022/07/04 11:49:11;;;;;;;1.65;0.60;;;28.60;99.90;;;;;;4979874;28;20047;-74
2022/07/04 11:51:46;;;;;;;0.55;0.50;;;28.70;99.90;;;;;;4979347;28;20054;-74
2022/07/04 11:54:12;;;;;;;2.08;0.80;;;28.10;99.90;;;;;;4975834;28;20038;-74
2022/07/04 11:56:37;;;;;;;2.40;0.88;;;27.90;99.90;;;;;;4973622;28;20023;-74
2022/07/04 11:59:14;;;;;;;1.40;0.50;;;27.40;99.90;;;;;;4980418;28;20030;-73
2022/07/04 12:01:44;;;;;;;1.65;0.52;;;27.20;99.90;;;;;;4980187;28;20033;-74
2022/07/04 12:04:20;;;;;;;0.98;0.40;;;27.20;99.90;;;;;;4970063;28;20027;-74
2022/07/04 12:06:48;;;;;;;0.70;0.50;;;27.20;99.90;;;;;;4980244;28;20085;-74
2022/07/04 12:09:16;;;;;;;3.30;0.60;;;27.90;99.90;;;;;;4980275;28;20046;-74
2022/07/04 12:11:55;;;;;;;1.05;0.50;;;28.20;99.90;;;;;;4972627;28;20629;-74
2022/07/04 12:14:21;;;;;;;0.85;0.30;;;27.80;99.90;;;;;;4977664;28;20037;-74
2022/07/04 12:16:47;;;;;;;1.15;0.50;;;27.70;99.90;;;;;;4980787;28;20042;-75
2022/07/04 12:19:13;;;;;;;2.90;0.50;;;27.60;99.90;;;;;;4978893;28;20082;-74
2022/07/04 12:21:39;;;;;;;1.65;0.60;;;27.70;99.90;;;;;;4976421;28;20039;-73
2022/07/04 12:24:05;;;;;;;2.17;0.60;;;27.70;99.90;;;;;;4976440;28;20106;-73
2022/07/04 12:26:37;;;;;;;3.70;0.40;;;27.00;99.90;;;;;;4976596;28;20035;-73
2022/07/04 12:29:02;;;;;;;2.00;0.43;;;27.10;99.90;;;;;;4974723;28;20034;-73
2022/07/04 12:31:42;;;;;;;0.82;0.47;;;27.10;99.90;;;;;;4972697;28;20395;-72
2022/07/04 12:34:15;;;;;;;1.80;0.50;;;27.10;99.90;;;;;;4971845;28;20055;-72
2022/07/04 12:36:54;;;;;;;1.95;0.60;;;27.50;99.90;;;;;;4976134;28;20027;-72
2022/07/04 12:39:32;;;;;;;3.90;0.50;;;26.80;99.90;;;;;;4976166;28;20041;-73
2022/07/04 12:42:10;;;;;;;2.00;0.77;;;27.20;99.90;;;;;;4977277;28;20497;-72
2022/07/04 12:44:40;;;;;;;2.30;0.70;;;26.90;99.90;;;;;;4977391;28;20643;-72
2022/07/04 12:47:06;;;;;;;2.55;0.40;;;26.70;99.90;;;;;;4977962;28;20054;-76
2022/07/04 12:49:33;;;;;;;2.13;0.50;;;26.70;99.90;;;;;;4978653;28;20097;-76
2022/07/04 12:52:26;;;;;;;0.60;0.40;;;26.80;99.90;;;;;;4967630;28;20039;-76
2022/07/04 12:55:09;;;;;;;4.05;0.80;;;26.40;99.90;;;;;;4982804;28;20049;-74
2022/07/04 12:57:34;;;;;;;2.78;0.65;;;26.40;99.90;;;;;;4972619;28;20082;-74
2022/07/04 13:00:00;;;;;;;1.20;0.40;;;26.50;99.90;;;;;;4970310;28;20066;-74
2022/07/04 13:02:25;;;;;;;0.75;0.50;;;26.50;99.90;;;;;;4981906;28;20103;-74
2022/07/04 13:04:51;;;;;;;0.68;0.40;;;26.70;99.90;;;;;;4976223;28;20031;-74
2022/07/04 13:07:18;;;;;;;1.98;0.73;;;26.00;99.90;;;;;;4986076;28;20022;-74
2022/07/04 13:09:45;;;;;;;1.67;0.65;;;25.80;99.90;;;;;;4977105;28;20050;-74